sensor_id;sensor_type;location;lat;lon;timestamp;temperature;humidity
4245;DHT22;2136;48.502;9.194;2023-03-01T00:00:08;1.20;59.60
4245;DHT22;2136;48.502;9.194;2023-03-01T00:02:35;1.20;59.90
4245;DHT22;2136;48.502;9.194;2023-03-01T00:05:03;1.20;59.90
4245;DHT22;2136;48.502;9.194;2023-03-01T00:07:29;1.10;60.00
4245;DHT22;2136;48.502;9.194;2023-03-01T00:09:58;1.10;59.90
4245;DHT22;2136;48.502;9.194;2023-03-01T00:12:24;1.10;59.90
4245;DHT22;2136;48.502;9.194;2023-03-01T00:14:51;1.10;60.20
4245;DHT22;2136;48.502;9.194;2023-03-01T00:17:18;1.10;60.30
4245;DHT22;2136;48.502;9.194;2023-03-01T00:19:45;1.10;60.40
4245;DHT22;2136;48.502;9.194;2023-03-01T00:22:11;1.00;60.40
4245;DHT22;2136;48.502;9.194;2023-03-01T00:24:38;1.00;60.40
4245;DHT22;2136;48.502;9.194;2023-03-01T00:27:06;1.00;60.80
4245;DHT22;2136;48.502;9.194;2023-03-01T00:29:33;1.00;60.50
4245;DHT22;2136;48.502;9.194;2023-03-01T00:32:00;0.90;60.30
4245;DHT22;2136;48.502;9.194;2023-03-01T00:34:27;0.90;60.40
4245;DHT22;2136;48.502;9.194;2023-03-01T00:36:53;0.90;60.80
4245;DHT22;2136;48.502;9.194;2023-03-01T00:39:20;0.90;60.90
4245;DHT22;2136;48.502;9.194;2023-03-01T00:41:47;0.90;60.90
4245;DHT22;2136;48.502;9.194;2023-03-01T00:44:16;0.80;60.90
4245;DHT22;2136;48.502;9.194;2023-03-01T00:46:43;0.80;61.00
4245;DHT22;2136;48.502;9.194;2023-03-01T00:49:09;0.80;60.90
4245;DHT22;2136;48.502;9.194;2023-03-01T00:51:36;0.80;60.70
4245;DHT22;2136;48.502;9.194;2023-03-01T00:54:04;0.80;60.60
4245;DHT22;2136;48.502;9.194;2023-03-01T00:56:31;0.80;60.90
4245;DHT22;2136;48.502;9.194;2023-03-01T00:58:58;0.80;61.20
4245;DHT22;2136;48.502;9.194;2023-03-01T01:01:28;0.80;61.30
4245;DHT22;2136;48.502;9.194;2023-03-01T01:03:56;0.80;62.20
4245;DHT22;2136;48.502;9.194;2023-03-01T01:06:26;0.80;62.40
4245;DHT22;2136;48.502;9.194;2023-03-01T01:08:54;0.80;61.60
4245;DHT22;2136;48.502;9.194;2023-03-01T01:11:22;0.80;61.60
4245;DHT22;2136;48.502;9.194;2023-03-01T01:13:49;0.80;61.60
4245;DHT22;2136;48.502;9.194;2023-03-01T01:16:17;0.70;61.50
4245;DHT22;2136;48.502;9.194;2023-03-01T01:18:46;0.70;61.60
4245;DHT22;2136;48.502;9.194;2023-03-01T01:21:15;0.70;61.60
4245;DHT22;2136;48.502;9.194;2023-03-01T01:23:43;0.70;61.60
4245;DHT22;2136;48.502;9.194;2023-03-01T01:26:13;0.70;61.80
4245;DHT22;2136;48.502;9.194;2023-03-01T01:28:40;0.70;61.90
4245;DHT22;2136;48.502;9.194;2023-03-01T01:31:07;0.70;62.20
4245;DHT22;2136;48.502;9.194;2023-03-01T01:33:34;0.70;62.20
4245;DHT22;2136;48.502;9.194;2023-03-01T01:36:03;0.70;62.30
4245;DHT22;2136;48.502;9.194;2023-03-01T01:38:29;0.80;62.40
4245;DHT22;2136;48.502;9.194;2023-03-01T01:40:56;0.90;62.40
4245;DHT22;2136;48.502;9.194;2023-03-01T01:43:26;1.00;62.50
4245;DHT22;2136;48.502;9.194;2023-03-01T01:45:55;1.00;62.40
4245;DHT22;2136;48.502;9.194;2023-03-01T01:48:26;1.00;62.30
4245;DHT22;2136;48.502;9.194;2023-03-01T01:51:11;1.10;62.40
4245;DHT22;2136;48.502;9.194;2023-03-01T01:53:40;1.10;62.20
4245;DHT22;2136;48.502;9.194;2023-03-01T01:56:11;1.20;62.10
4245;DHT22;2136;48.502;9.194;2023-03-01T01:58:41;1.20;61.90
4245;DHT22;2136;48.502;9.194;2023-03-01T02:01:09;1.30;61.80
4245;DHT22;2136;48.502;9.194;2023-03-01T02:03:38;1.40;61.60
4245;DHT22;2136;48.502;9.194;2023-03-01T02:06:13;1.40;61.70
4245;DHT22;2136;48.502;9.194;2023-03-01T02:08:44;1.50;61.80
4245;DHT22;2136;48.502;9.194;2023-03-01T02:11:13;1.50;61.80
4245;DHT22;2136;48.502;9.194;2023-03-01T02:13:41;1.50;61.60
4245;DHT22;2136;48.502;9.194;2023-03-01T02:16:10;1.60;61.50
4245;DHT22;2136;48.502;9.194;2023-03-01T02:18:38;1.70;61.40
4245;DHT22;2136;48.502;9.194;2023-03-01T02:21:17;1.70;61.20
4245;DHT22;2136;48.502;9.194;2023-03-01T02:23:47;1.70;61.00
4245;DHT22;2136;48.502;9.194;2023-03-01T02:26:19;1.80;60.60
4245;DHT22;2136;48.502;9.194;2023-03-01T02:28:48;1.80;60.40
4245;DHT22;2136;48.502;9.194;2023-03-01T02:31:17;1.90;60.30
4245;DHT22;2136;48.502;9.194;2023-03-01T02:34:03;1.90;60.30
4245;DHT22;2136;48.502;9.194;2023-03-01T02:36:33;1.90;60.30
4245;DHT22;2136;48.502;9.194;2023-03-01T02:39:03;2.00;60.00
4245;DHT22;2136;48.502;9.194;2023-03-01T02:41:35;2.00;59.90
4245;DHT22;2136;48.502;9.194;2023-03-01T02:44:04;2.00;60.60
4245;DHT22;2136;48.502;9.194;2023-03-01T02:46:31;2.00;59.80
4245;DHT22;2136;48.502;9.194;2023-03-01T02:48:58;2.00;59.60
4245;DHT22;2136;48.502;9.194;2023-03-01T02:51:34;2.10;59.60
4245;DHT22;2136;48.502;9.194;2023-03-01T02:54:12;2.10;59.60
4245;DHT22;2136;48.502;9.194;2023-03-01T02:56:40;2.10;59.40
4245;DHT22;2136;48.502;9.194;2023-03-01T02:59:09;2.10;59.10
4245;DHT22;2136;48.502;9.194;2023-03-01T03:01:37;2.10;59.50
4245;DHT22;2136;48.502;9.194;2023-03-01T03:04:04;2.10;59.00
4245;DHT22;2136;48.502;9.194;2023-03-01T03:06:32;2.10;59.20
4245;DHT22;2136;48.502;9.194;2023-03-01T03:08:59;2.10;59.20
4245;DHT22;2136;48.502;9.194;2023-03-01T03:11:26;2.10;59.10
4245;DHT22;2136;48.502;9.194;2023-03-01T03:13:53;2.10;59.10
4245;DHT22;2136;48.502;9.194;2023-03-01T03:16:21;2.20;59.00
4245;DHT22;2136;48.502;9.194;2023-03-01T03:18:48;2.20;59.10
4245;DHT22;2136;48.502;9.194;2023-03-01T03:21:15;2.20;59.00
4245;DHT22;2136;48.502;9.194;2023-03-01T03:23:43;2.20;59.00
4245;DHT22;2136;48.502;9.194;2023-03-01T03:26:10;2.20;59.00
4245;DHT22;2136;48.502;9.194;2023-03-01T03:28:39;2.20;58.80
4245;DHT22;2136;48.502;9.194;2023-03-01T03:31:07;2.20;58.80
4245;DHT22;2136;48.502;9.194;2023-03-01T03:33:35;2.20;59.00
4245;DHT22;2136;48.502;9.194;2023-03-01T03:36:03;2.50;59.00
4245;DHT22;2136;48.502;9.194;2023-03-01T03:38:30;2.30;58.90
4245;DHT22;2136;48.502;9.194;2023-03-01T03:41:02;2.20;58.70
4245;DHT22;2136;48.502;9.194;2023-03-01T03:43:30;2.30;59.00
4245;DHT22;2136;48.502;9.194;2023-03-01T03:45:58;2.30;58.90
4245;DHT22;2136;48.502;9.194;2023-03-01T03:48:25;2.30;58.60
4245;DHT22;2136;48.502;9.194;2023-03-01T03:50:55;2.20;58.80
4245;DHT22;2136;48.502;9.194;2023-03-01T03:53:23;2.20;58.80
4245;DHT22;2136;48.502;9.194;2023-03-01T03:55:51;2.20;58.80
4245;DHT22;2136;48.502;9.194;2023-03-01T03:58:21;2.20;58.80
4245;DHT22;2136;48.502;9.194;2023-03-01T04:00:50;2.10;59.00
4245;DHT22;2136;48.502;9.194;2023-03-01T04:03:18;2.30;59.20
4245;DHT22;2136;48.502;9.194;2023-03-01T04:05:45;2.10;59.10
4245;DHT22;2136;48.502;9.194;2023-03-01T04:08:14;2.10;59.30
4245;DHT22;2136;48.502;9.194;2023-03-01T04:10:43;2.10;59.20
4245;DHT22;2136;48.502;9.194;2023-03-01T04:13:12;2.10;59.30
4245;DHT22;2136;48.502;9.194;2023-03-01T04:15:39;2.10;59.30
4245;DHT22;2136;48.502;9.194;2023-03-01T04:18:09;2.10;59.40
4245;DHT22;2136;48.502;9.194;2023-03-01T04:20:38;2.10;59.30
4245;DHT22;2136;48.502;9.194;2023-03-01T04:23:06;2.20;59.30
4245;DHT22;2136;48.502;9.194;2023-03-01T04:25:45;2.10;59.50
4245;DHT22;2136;48.502;9.194;2023-03-01T04:28:14;2.20;59.50
4245;DHT22;2136;48.502;9.194;2023-03-01T04:30:41;2.20;59.30
4245;DHT22;2136;48.502;9.194;2023-03-01T04:33:10;2.10;59.10
4245;DHT22;2136;48.502;9.194;2023-03-01T04:35:37;2.20;59.50
4245;DHT22;2136;48.502;9.194;2023-03-01T04:38:06;2.20;59.40
4245;DHT22;2136;48.502;9.194;2023-03-01T04:40:33;2.20;59.40
4245;DHT22;2136;48.502;9.194;2023-03-01T04:43:02;2.20;59.40
4245;DHT22;2136;48.502;9.194;2023-03-01T04:45:30;2.20;59.30
4245;DHT22;2136;48.502;9.194;2023-03-01T04:47:57;2.10;59.40
4245;DHT22;2136;48.502;9.194;2023-03-01T04:50:24;2.20;59.40
4245;DHT22;2136;48.502;9.194;2023-03-01T04:52:52;2.10;59.40
4245;DHT22;2136;48.502;9.194;2023-03-01T04:55:19;2.20;59.30
4245;DHT22;2136;48.502;9.194;2023-03-01T04:57:46;2.20;59.30
4245;DHT22;2136;48.502;9.194;2023-03-01T05:00:15;2.20;59.30
4245;DHT22;2136;48.502;9.194;2023-03-01T05:02:50;2.20;59.50
4245;DHT22;2136;48.502;9.194;2023-03-01T05:05:20;2.20;60.30
4245;DHT22;2136;48.502;9.194;2023-03-01T05:07:51;2.30;59.90
4245;DHT22;2136;48.502;9.194;2023-03-01T05:10:18;2.20;59.70
4245;DHT22;2136;48.502;9.194;2023-03-01T05:12:45;2.30;59.70
4245;DHT22;2136;48.502;9.194;2023-03-01T05:15:13;2.30;59.50
4245;DHT22;2136;48.502;9.194;2023-03-01T05:17:41;2.30;59.30
4245;DHT22;2136;48.502;9.194;2023-03-01T05:20:09;2.30;59.30
4245;DHT22;2136;48.502;9.194;2023-03-01T05:22:37;2.30;59.50
4245;DHT22;2136;48.502;9.194;2023-03-01T05:25:04;2.30;59.30
4245;DHT22;2136;48.502;9.194;2023-03-01T05:27:32;2.40;59.50
4245;DHT22;2136;48.502;9.194;2023-03-01T05:29:59;2.30;59.20
4245;DHT22;2136;48.502;9.194;2023-03-01T05:32:41;2.30;59.30
4245;DHT22;2136;48.502;9.194;2023-03-01T05:35:09;2.40;59.70
4245;DHT22;2136;48.502;9.194;2023-03-01T05:37:39;2.40;59.70
4245;DHT22;2136;48.502;9.194;2023-03-01T05:40:07;2.40;59.70
4245;DHT22;2136;48.502;9.194;2023-03-01T05:42:42;2.40;59.70
4245;DHT22;2136;48.502;9.194;2023-03-01T05:45:09;2.40;59.70
4245;DHT22;2136;48.502;9.194;2023-03-01T05:47:38;2.40;59.80
4245;DHT22;2136;48.502;9.194;2023-03-01T05:50:07;2.30;59.70
4245;DHT22;2136;48.502;9.194;2023-03-01T05:52:34;2.30;59.60
4245;DHT22;2136;48.502;9.194;2023-03-01T05:55:01;2.40;59.60
4245;DHT22;2136;48.502;9.194;2023-03-01T05:57:28;2.30;59.40
4245;DHT22;2136;48.502;9.194;2023-03-01T05:59:55;2.40;59.60
4245;DHT22;2136;48.502;9.194;2023-03-01T06:02:22;2.40;59.50
4245;DHT22;2136;48.502;9.194;2023-03-01T06:04:49;2.40;59.60
4245;DHT22;2136;48.502;9.194;2023-03-01T06:07:17;2.40;59.60
4245;DHT22;2136;48.502;9.194;2023-03-01T06:09:44;2.40;59.60
4245;DHT22;2136;48.502;9.194;2023-03-01T06:12:10;2.50;59.40
4245;DHT22;2136;48.502;9.194;2023-03-01T06:14:37;2.40;59.60
4245;DHT22;2136;48.502;9.194;2023-03-01T06:17:04;2.40;59.70
4245;DHT22;2136;48.502;9.194;2023-03-01T06:19:31;2.40;59.60
4245;DHT22;2136;48.502;9.194;2023-03-01T06:21:58;2.40;59.70
4245;DHT22;2136;48.502;9.194;2023-03-01T06:24:26;2.50;59.60
4245;DHT22;2136;48.502;9.194;2023-03-01T06:26:54;2.40;59.60
4245;DHT22;2136;48.502;9.194;2023-03-01T06:29:22;2.40;59.80
4245;DHT22;2136;48.502;9.194;2023-03-01T06:31:49;2.40;59.60
4245;DHT22;2136;48.502;9.194;2023-03-01T06:34:16;2.40;59.40
4245;DHT22;2136;48.502;9.194;2023-03-01T06:36:43;2.40;59.50
4245;DHT22;2136;48.502;9.194;2023-03-01T06:39:09;2.40;59.50
4245;DHT22;2136;48.502;9.194;2023-03-01T06:41:38;2.60;59.80
4245;DHT22;2136;48.502;9.194;2023-03-01T06:44:04;2.30;59.60
4245;DHT22;2136;48.502;9.194;2023-03-01T06:46:32;2.40;59.60
4245;DHT22;2136;48.502;9.194;2023-03-01T06:48:59;2.50;60.00
4245;DHT22;2136;48.502;9.194;2023-03-01T06:51:25;2.50;59.90
4245;DHT22;2136;48.502;9.194;2023-03-01T06:53:52;2.50;59.90
4245;DHT22;2136;48.502;9.194;2023-03-01T06:56:19;2.30;59.80
4245;DHT22;2136;48.502;9.194;2023-03-01T06:58:47;2.30;60.00
4245;DHT22;2136;48.502;9.194;2023-03-01T07:01:14;2.40;60.00
4245;DHT22;2136;48.502;9.194;2023-03-01T07:03:41;2.40;60.00
4245;DHT22;2136;48.502;9.194;2023-03-01T07:06:09;2.40;60.00
4245;DHT22;2136;48.502;9.194;2023-03-01T07:08:36;2.50;59.80
4245;DHT22;2136;48.502;9.194;2023-03-01T07:11:03;2.50;59.70
4245;DHT22;2136;48.502;9.194;2023-03-01T07:13:31;2.60;59.80
4245;DHT22;2136;48.502;9.194;2023-03-01T07:15:59;2.60;59.80
4245;DHT22;2136;48.502;9.194;2023-03-01T07:18:26;2.70;59.80
4245;DHT22;2136;48.502;9.194;2023-03-01T07:20:53;2.80;59.90
4245;DHT22;2136;48.502;9.194;2023-03-01T07:23:20;2.80;59.70
4245;DHT22;2136;48.502;9.194;2023-03-01T07:25:52;2.80;59.60
4245;DHT22;2136;48.502;9.194;2023-03-01T07:28:19;2.80;59.70
4245;DHT22;2136;48.502;9.194;2023-03-01T07:30:46;2.90;59.50
4245;DHT22;2136;48.502;9.194;2023-03-01T07:33:14;3.00;59.50
4245;DHT22;2136;48.502;9.194;2023-03-01T07:35:41;3.00;59.00
4245;DHT22;2136;48.502;9.194;2023-03-01T07:38:08;3.10;59.10
4245;DHT22;2136;48.502;9.194;2023-03-01T07:40:35;3.10;58.90
4245;DHT22;2136;48.502;9.194;2023-03-01T07:43:02;3.20;59.70
4245;DHT22;2136;48.502;9.194;2023-03-01T07:45:29;3.30;58.90
4245;DHT22;2136;48.502;9.194;2023-03-01T07:47:56;3.30;58.60
4245;DHT22;2136;48.502;9.194;2023-03-01T07:50:24;3.40;58.10
4245;DHT22;2136;48.502;9.194;2023-03-01T07:52:51;3.40;57.90
4245;DHT22;2136;48.502;9.194;2023-03-01T07:55:18;3.50;58.10
4245;DHT22;2136;48.502;9.194;2023-03-01T07:57:45;3.60;57.90
4245;DHT22;2136;48.502;9.194;2023-03-01T08:00:13;3.70;57.70
4245;DHT22;2136;48.502;9.194;2023-03-01T08:02:40;3.70;57.60
4245;DHT22;2136;48.502;9.194;2023-03-01T08:05:07;3.90;57.40
4245;DHT22;2136;48.502;9.194;2023-03-01T08:07:36;4.00;57.30
4245;DHT22;2136;48.502;9.194;2023-03-01T08:10:04;4.50;57.50
4245;DHT22;2136;48.502;9.194;2023-03-01T08:12:31;4.80;57.10
4245;DHT22;2136;48.502;9.194;2023-03-01T08:14:58;5.30;55.90
4245;DHT22;2136;48.502;9.194;2023-03-01T08:17:24;6.20;55.10
4245;DHT22;2136;48.502;9.194;2023-03-01T08:19:51;7.10;54.50
4245;DHT22;2136;48.502;9.194;2023-03-01T08:22:18;8.00;52.60
4245;DHT22;2136;48.502;9.194;2023-03-01T08:24:46;8.70;50.60
4245;DHT22;2136;48.502;9.194;2023-03-01T08:27:15;9.40;49.30
4245;DHT22;2136;48.502;9.194;2023-03-01T08:29:42;9.90;47.00
4245;DHT22;2136;48.502;9.194;2023-03-01T08:32:08;10.10;45.20
4245;DHT22;2136;48.502;9.194;2023-03-01T08:34:35;10.00;44.80
4245;DHT22;2136;48.502;9.194;2023-03-01T08:37:02;10.20;44.20
4245;DHT22;2136;48.502;9.194;2023-03-01T08:39:29;10.30;44.10
4245;DHT22;2136;48.502;9.194;2023-03-01T08:41:58;10.20;43.80
4245;DHT22;2136;48.502;9.194;2023-03-01T08:44:25;10.30;43.70
4245;DHT22;2136;48.502;9.194;2023-03-01T08:46:52;10.40;43.20
4245;DHT22;2136;48.502;9.194;2023-03-01T08:49:21;10.50;43.30
4245;DHT22;2136;48.502;9.194;2023-03-01T08:51:49;10.80;42.80
4245;DHT22;2136;48.502;9.194;2023-03-01T08:54:18;11.00;43.10
4245;DHT22;2136;48.502;9.194;2023-03-01T08:56:45;11.40;42.80
4245;DHT22;2136;48.502;9.194;2023-03-01T08:59:15;11.90;41.90
4245;DHT22;2136;48.502;9.194;2023-03-01T09:01:42;12.30;41.40
4245;DHT22;2136;48.502;9.194;2023-03-01T09:04:10;13.10;41.10
4245;DHT22;2136;48.502;9.194;2023-03-01T09:06:37;14.00;40.00
4245;DHT22;2136;48.502;9.194;2023-03-01T09:09:05;15.20;37.50
4245;DHT22;2136;48.502;9.194;2023-03-01T09:11:33;16.30;36.80
4245;DHT22;2136;48.502;9.194;2023-03-01T09:14:00;17.80;35.90
4245;DHT22;2136;48.502;9.194;2023-03-01T09:16:28;19.20;33.50
4245;DHT22;2136;48.502;9.194;2023-03-01T09:18:59;20.80;32.30
4245;DHT22;2136;48.502;9.194;2023-03-01T09:21:26;22.60;31.60
4245;DHT22;2136;48.502;9.194;2023-03-01T09:23:52;23.80;29.90
4245;DHT22;2136;48.502;9.194;2023-03-01T09:26:21;24.10;27.80
4245;DHT22;2136;48.502;9.194;2023-03-01T09:28:49;24.60;27.70
4245;DHT22;2136;48.502;9.194;2023-03-01T09:31:18;25.50;27.50
4245;DHT22;2136;48.502;9.194;2023-03-01T09:33:47;26.50;26.80
4245;DHT22;2136;48.502;9.194;2023-03-01T09:36:17;27.40;26.00
4245;DHT22;2136;48.502;9.194;2023-03-01T09:38:44;28.10;25.40
4245;DHT22;2136;48.502;9.194;2023-03-01T09:41:26;28.90;25.30
4245;DHT22;2136;48.502;9.194;2023-03-01T09:44:01;29.20;24.20
4245;DHT22;2136;48.502;9.194;2023-03-01T09:46:32;28.70;23.10
4245;DHT22;2136;48.502;9.194;2023-03-01T09:49:10;28.50;22.90
4245;DHT22;2136;48.502;9.194;2023-03-01T09:51:38;28.40;22.70
4245;DHT22;2136;48.502;9.194;2023-03-01T09:54:06;28.60;22.90
4245;DHT22;2136;48.502;9.194;2023-03-01T09:56:37;29.10;22.90
4245;DHT22;2136;48.502;9.194;2023-03-01T09:59:15;29.00;21.50
4245;DHT22;2136;48.502;9.194;2023-03-01T10:01:48;29.50;22.00
4245;DHT22;2136;48.502;9.194;2023-03-01T10:04:38;30.30;22.10
4245;DHT22;2136;48.502;9.194;2023-03-01T10:07:19;30.60;21.90
4245;DHT22;2136;48.502;9.194;2023-03-01T10:09:47;30.80;21.20
4245;DHT22;2136;48.502;9.194;2023-03-01T10:12:17;30.60;20.90
4245;DHT22;2136;48.502;9.194;2023-03-01T10:14:51;30.20;20.90
4245;DHT22;2136;48.502;9.194;2023-03-01T10:17:28;29.70;21.10
4245;DHT22;2136;48.502;9.194;2023-03-01T10:22:50;31.60;21.90
4245;DHT22;2136;48.502;9.194;2023-03-01T10:25:29;33.30;21.20
4245;DHT22;2136;48.502;9.194;2023-03-01T10:28:02;34.60;20.60
4245;DHT22;2136;48.502;9.194;2023-03-01T10:30:35;35.50;19.50
4245;DHT22;2136;48.502;9.194;2023-03-01T10:33:09;36.20;19.50
4245;DHT22;2136;48.502;9.194;2023-03-01T10:35:41;37.10;19.20
4245;DHT22;2136;48.502;9.194;2023-03-01T10:38:09;37.80;18.50
4245;DHT22;2136;48.502;9.194;2023-03-01T10:40:50;37.60;17.10
4245;DHT22;2136;48.502;9.194;2023-03-01T10:43:17;36.60;16.80
4245;DHT22;2136;48.502;9.194;2023-03-01T10:45:45;36.20;17.20
4245;DHT22;2136;48.502;9.194;2023-03-01T10:48:14;35.20;17.30
4245;DHT22;2136;48.502;9.194;2023-03-01T10:50:45;34.90;17.80
4245;DHT22;2136;48.502;9.194;2023-03-01T10:53:26;34.00;17.50
4245;DHT22;2136;48.502;9.194;2023-03-01T10:55:59;33.20;18.20
4245;DHT22;2136;48.502;9.194;2023-03-01T10:58:27;33.70;18.50
4245;DHT22;2136;48.502;9.194;2023-03-01T11:00:56;33.10;18.60
4245;DHT22;2136;48.502;9.194;2023-03-01T11:03:25;33.10;18.30
4245;DHT22;2136;48.502;9.194;2023-03-01T11:05:56;33.30;18.30
4245;DHT22;2136;48.502;9.194;2023-03-01T11:08:34;33.70;18.30
4245;DHT22;2136;48.502;9.194;2023-03-01T11:11:12;33.90;18.20
4245;DHT22;2136;48.502;9.194;2023-03-01T11:13:52;34.30;18.40
4245;DHT22;2136;48.502;9.194;2023-03-01T11:16:25;34.50;18.10
4245;DHT22;2136;48.502;9.194;2023-03-01T11:18:57;35.20;17.90
4245;DHT22;2136;48.502;9.194;2023-03-01T11:21:28;35.90;18.00
4245;DHT22;2136;48.502;9.194;2023-03-01T11:23:57;36.70;17.70
4245;DHT22;2136;48.502;9.194;2023-03-01T11:26:27;36.80;17.30
4245;DHT22;2136;48.502;9.194;2023-03-01T11:28:58;37.50;17.60
4245;DHT22;2136;48.502;9.194;2023-03-01T11:31:27;38.00;17.30
4245;DHT22;2136;48.502;9.194;2023-03-01T11:33:57;38.40;17.20
4245;DHT22;2136;48.502;9.194;2023-03-01T11:36:31;38.50;16.80
4245;DHT22;2136;48.502;9.194;2023-03-01T11:39:05;38.30;16.50
4245;DHT22;2136;48.502;9.194;2023-03-01T11:41:41;38.50;16.60
4245;DHT22;2136;48.502;9.194;2023-03-01T11:44:16;38.80;16.70
4245;DHT22;2136;48.502;9.194;2023-03-01T11:46:57;39.20;16.70
4245;DHT22;2136;48.502;9.194;2023-03-01T11:52:25;39.50;16.30
4245;DHT22;2136;48.502;9.194;2023-03-01T11:55:04;39.50;16.30
4245;DHT22;2136;48.502;9.194;2023-03-01T11:57:47;38.60;16.00
4245;DHT22;2136;48.502;9.194;2023-03-01T12:00:25;36.60;16.10
4245;DHT22;2136;48.502;9.194;2023-03-01T12:03:17;34.50;16.80
4245;DHT22;2136;48.502;9.194;2023-03-01T12:05:58;32.30;17.60
4245;DHT22;2136;48.502;9.194;2023-03-01T12:08:35;30.70;18.20
4245;DHT22;2136;48.502;9.194;2023-03-01T12:11:16;29.20;18.90
4245;DHT22;2136;48.502;9.194;2023-03-01T12:14:03;27.50;19.70
4245;DHT22;2136;48.502;9.194;2023-03-01T12:19:52;23.90;21.70
4245;DHT22;2136;48.502;9.194;2023-03-01T12:22:30;22.10;22.60
4245;DHT22;2136;48.502;9.194;2023-03-01T12:25:23;20.30;23.60
4245;DHT22;2136;48.502;9.194;2023-03-01T12:28:29;19.20;24.70
4245;DHT22;2136;48.502;9.194;2023-03-01T12:31:23;18.00;25.90
4245;DHT22;2136;48.502;9.194;2023-03-01T12:34:02;17.00;26.60
4245;DHT22;2136;48.502;9.194;2023-03-01T12:36:46;16.10;27.40
4245;DHT22;2136;48.502;9.194;2023-03-01T12:39:28;15.50;28.10
4245;DHT22;2136;48.502;9.194;2023-03-01T12:42:04;15.00;29.20
4245;DHT22;2136;48.502;9.194;2023-03-01T12:44:55;14.60;29.70
4245;DHT22;2136;48.502;9.194;2023-03-01T12:47:44;14.10;30.10
4245;DHT22;2136;48.502;9.194;2023-03-01T12:50:20;14.00;30.40
4245;DHT22;2136;48.502;9.194;2023-03-01T12:52:50;13.50;30.80
4245;DHT22;2136;48.502;9.194;2023-03-01T12:55:25;13.20;31.90
4245;DHT22;2136;48.502;9.194;2023-03-01T12:58:00;13.10;32.00
4245;DHT22;2136;48.502;9.194;2023-03-01T13:00:35;12.90;32.60
4245;DHT22;2136;48.502;9.194;2023-03-01T13:03:12;12.80;32.90
4245;DHT22;2136;48.502;9.194;2023-03-01T13:05:48;12.60;33.60
4245;DHT22;2136;48.502;9.194;2023-03-01T13:08:22;12.50;34.30
4245;DHT22;2136;48.502;9.194;2023-03-01T13:10:56;12.30;34.20
4245;DHT22;2136;48.502;9.194;2023-03-01T13:13:28;12.30;34.30
4245;DHT22;2136;48.502;9.194;2023-03-01T13:15:56;12.20;34.70
4245;DHT22;2136;48.502;9.194;2023-03-01T13:18:31;12.10;34.60
4245;DHT22;2136;48.502;9.194;2023-03-01T13:21:00;12.10;34.50
4245;DHT22;2136;48.502;9.194;2023-03-01T13:23:30;12.00;35.20
4245;DHT22;2136;48.502;9.194;2023-03-01T13:26:13;11.90;35.20
4245;DHT22;2136;48.502;9.194;2023-03-01T13:28:55;11.70;35.90
4245;DHT22;2136;48.502;9.194;2023-03-01T13:34:56;11.80;35.90
4245;DHT22;2136;48.502;9.194;2023-03-01T13:37:31;12.20;36.00
4245;DHT22;2136;48.502;9.194;2023-03-01T13:42:48;12.20;36.20
4245;DHT22;2136;48.502;9.194;2023-03-01T13:45:32;12.50;35.90
4245;DHT22;2136;48.502;9.194;2023-03-01T13:48:03;13.10;35.90
4245;DHT22;2136;48.502;9.194;2023-03-01T13:50:38;14.00;35.20
4245;DHT22;2136;48.502;9.194;2023-03-01T13:53:14;15.20;34.30
4245;DHT22;2136;48.502;9.194;2023-03-01T13:55:44;16.10;33.00
4245;DHT22;2136;48.502;9.194;2023-03-01T13:58:18;16.40;31.90
4245;DHT22;2136;48.502;9.194;2023-03-01T14:00:54;16.50;31.70
4245;DHT22;2136;48.502;9.194;2023-03-01T14:03:21;16.70;31.20
4245;DHT22;2136;48.502;9.194;2023-03-01T14:05:59;17.00;31.10
4245;DHT22;2136;48.502;9.194;2023-03-01T14:08:27;17.00;30.90
4245;DHT22;2136;48.502;9.194;2023-03-01T14:11:08;16.80;30.60
4245;DHT22;2136;48.502;9.194;2023-03-01T14:13:51;17.00;30.70
4245;DHT22;2136;48.502;9.194;2023-03-01T14:16:31;17.10;30.50
4245;DHT22;2136;48.502;9.194;2023-03-01T14:19:10;17.50;30.20
4245;DHT22;2136;48.502;9.194;2023-03-01T14:21:42;18.00;29.80
4245;DHT22;2136;48.502;9.194;2023-03-01T14:24:16;18.30;29.50
4245;DHT22;2136;48.502;9.194;2023-03-01T14:26:44;18.60;29.30
4245;DHT22;2136;48.502;9.194;2023-03-01T14:29:24;18.90;29.00
4245;DHT22;2136;48.502;9.194;2023-03-01T14:31:52;19.00;28.90
4245;DHT22;2136;48.502;9.194;2023-03-01T14:34:20;19.00;28.70
4245;DHT22;2136;48.502;9.194;2023-03-01T14:36:47;18.80;29.00
4245;DHT22;2136;48.502;9.194;2023-03-01T14:39:19;18.50;28.80
4245;DHT22;2136;48.502;9.194;2023-03-01T14:41:47;18.30;29.10
4245;DHT22;2136;48.502;9.194;2023-03-01T14:44:18;17.90;28.70
4245;DHT22;2136;48.502;9.194;2023-03-01T14:46:53;17.50;29.20
4245;DHT22;2136;48.502;9.194;2023-03-01T14:49:25;17.20;29.50
4245;DHT22;2136;48.502;9.194;2023-03-01T14:51:55;17.00;29.60
4245;DHT22;2136;48.502;9.194;2023-03-01T14:54:25;17.00;29.70
4245;DHT22;2136;48.502;9.194;2023-03-01T14:56:58;16.90;29.80
4245;DHT22;2136;48.502;9.194;2023-03-01T14:59:26;16.80;29.90
4245;DHT22;2136;48.502;9.194;2023-03-01T15:01:55;16.60;30.00
4245;DHT22;2136;48.502;9.194;2023-03-01T15:04:24;16.30;30.00
4245;DHT22;2136;48.502;9.194;2023-03-01T15:06:53;16.00;30.00
4245;DHT22;2136;48.502;9.194;2023-03-01T15:09:21;15.90;30.50
4245;DHT22;2136;48.502;9.194;2023-03-01T15:11:48;15.60;30.80
4245;DHT22;2136;48.502;9.194;2023-03-01T15:14:29;15.20;31.00
4245;DHT22;2136;48.502;9.194;2023-03-01T15:17:22;14.90;31.70
4245;DHT22;2136;48.502;9.194;2023-03-01T15:19:53;14.60;32.00
4245;DHT22;2136;48.502;9.194;2023-03-01T15:22:21;14.20;32.60
4245;DHT22;2136;48.502;9.194;2023-03-01T15:24:48;14.00;32.90
4245;DHT22;2136;48.502;9.194;2023-03-01T15:27:18;14.00;33.40
4245;DHT22;2136;48.502;9.194;2023-03-01T15:29:49;13.80;33.40
4245;DHT22;2136;48.502;9.194;2023-03-01T15:32:27;13.60;33.70
4245;DHT22;2136;48.502;9.194;2023-03-01T15:34:55;13.50;33.90
4245;DHT22;2136;48.502;9.194;2023-03-01T15:37:40;13.30;34.30
4245;DHT22;2136;48.502;9.194;2023-03-01T15:40:19;13.10;34.60
4245;DHT22;2136;48.502;9.194;2023-03-01T15:42:47;12.70;35.20
4245;DHT22;2136;48.502;9.194;2023-03-01T15:45:22;12.50;35.20
4245;DHT22;2136;48.502;9.194;2023-03-01T15:47:59;12.30;35.50
4245;DHT22;2136;48.502;9.194;2023-03-01T15:50:39;12.20;36.00
4245;DHT22;2136;48.502;9.194;2023-03-01T15:53:12;11.90;36.10
4245;DHT22;2136;48.502;9.194;2023-03-01T15:55:40;11.70;36.50
4245;DHT22;2136;48.502;9.194;2023-03-01T15:58:12;11.60;36.50
4245;DHT22;2136;48.502;9.194;2023-03-01T16:00:39;11.50;37.10
4245;DHT22;2136;48.502;9.194;2023-03-01T16:03:09;11.30;37.10
4245;DHT22;2136;48.502;9.194;2023-03-01T16:05:37;11.20;37.70
4245;DHT22;2136;48.502;9.194;2023-03-01T16:08:06;11.20;37.60
4245;DHT22;2136;48.502;9.194;2023-03-01T16:10:33;11.20;37.60
4245;DHT22;2136;48.502;9.194;2023-03-01T16:13:00;11.10;38.00
4245;DHT22;2136;48.502;9.194;2023-03-01T16:15:29;11.10;38.10
4245;DHT22;2136;48.502;9.194;2023-03-01T16:17:56;11.10;38.20
4245;DHT22;2136;48.502;9.194;2023-03-01T16:20:25;11.00;38.60
4245;DHT22;2136;48.502;9.194;2023-03-01T16:22:53;11.00;38.40
4245;DHT22;2136;48.502;9.194;2023-03-01T16:25:21;10.80;38.40
4245;DHT22;2136;48.502;9.194;2023-03-01T16:27:49;10.70;38.40
4245;DHT22;2136;48.502;9.194;2023-03-01T16:30:18;10.60;38.60
4245;DHT22;2136;48.502;9.194;2023-03-01T16:32:47;10.50;38.80
4245;DHT22;2136;48.502;9.194;2023-03-01T16:35:16;10.30;39.00
4245;DHT22;2136;48.502;9.194;2023-03-01T16:37:45;10.20;39.00
4245;DHT22;2136;48.502;9.194;2023-03-01T16:40:17;10.20;39.20
4245;DHT22;2136;48.502;9.194;2023-03-01T16:42:46;10.00;39.40
4245;DHT22;2136;48.502;9.194;2023-03-01T16:45:13;9.90;40.60